sensor_id;sensor_type;location;lat;lon;timestamp;P1;durP1;ratioP1;P2;durP2;ratioP2
47009;SDS011;59230;54.164;-3.124;2023-09-19T00:00:37;36.15;;;4.32;;
47009;SDS011;59230;54.164;-3.124;2023-09-19T00:03:03;25.13;;;3.95;;
47009;SDS011;59230;54.164;-3.124;2023-09-19T00:05:30;22.90;;;3.75;;
47009;SDS011;59230;54.164;-3.124;2023-09-19T00:08:00;31.50;;;4.07;;
47009;SDS011;59230;54.164;-3.124;2023-09-19T00:10:26;35.35;;;4.03;;
47009;SDS011;59230;54.164;-3.124;2023-09-19T00:12:52;31.60;;;4.55;;
47009;SDS011;59230;54.164;-3.124;2023-09-19T00:15:24;25.30;;;3.78;;
47009;SDS011;59230;54.164;-3.124;2023-09-19T00:17:53;22.70;;;3.15;;
47009;SDS011;59230;54.164;-3.124;2023-09-19T00:23:35;27.27;;;3.10;;
47009;SDS011;59230;54.164;-3.124;2023-09-19T00:26:00;28.90;;;3.60;;
47009;SDS011;59230;54.164;-3.124;2023-09-19T00:28:26;32.20;;;4.03;;
47009;SDS011;59230;54.164;-3.124;2023-09-19T00:30:52;20.75;;;3.67;;
47009;SDS011;59230;54.164;-3.124;2023-09-19T00:33:20;20.40;;;3.33;;
47009;SDS011;59230;54.164;-3.124;2023-09-19T00:35:49;27.65;;;3.60;;
47009;SDS011;59230;54.164;-3.124;2023-09-19T00:38:15;27.27;;;4.00;;
47009;SDS011;59230;54.164;-3.124;2023-09-19T00:40:45;41.95;;;4.75;;
47009;SDS011;59230;54.164;-3.124;2023-09-19T00:43:11;33.38;;;4.22;;
47009;SDS011;59230;54.164;-3.124;2023-09-19T00:45:37;29.77;;;4.43;;
47009;SDS011;59230;54.164;-3.124;2023-09-19T00:48:04;33.75;;;4.28;;
47009;SDS011;59230;54.164;-3.124;2023-09-19T00:50:34;27.50;;;3.72;;
47009;SDS011;59230;54.164;-3.124;2023-09-19T00:53:00;34.83;;;4.63;;
47009;SDS011;59230;54.164;-3.124;2023-09-19T00:55:28;32.63;;;4.35;;
47009;SDS011;59230;54.164;-3.124;2023-09-19T00:57:55;39.35;;;5.28;;
47009;SDS011;59230;54.164;-3.124;2023-09-19T01:00:21;34.05;;;4.70;;
47009;SDS011;59230;54.164;-3.124;2023-09-19T01:02:46;22.90;;;4.43;;
47009;SDS011;59230;54.164;-3.124;2023-09-19T01:05:12;29.63;;;4.32;;
47009;SDS011;59230;54.164;-3.124;2023-09-19T01:07:38;34.35;;;4.32;;
47009;SDS011;59230;54.164;-3.124;2023-09-19T01:10:11;37.22;;;4.53;;
47009;SDS011;59230;54.164;-3.124;2023-09-19T01:31:31;34.05;;;3.75;;
47009;SDS011;59230;54.164;-3.124;2023-09-19T01:34:02;37.22;;;5.13;;
47009;SDS011;59230;54.164;-3.124;2023-09-19T01:36:33;37.20;;;4.43;;
47009;SDS011;59230;54.164;-3.124;2023-09-19T01:39:01;30.20;;;4.07;;
47009;SDS011;59230;54.164;-3.124;2023-09-19T01:41:38;32.13;;;3.97;;
47009;SDS011;59230;54.164;-3.124;2023-09-19T01:44:06;33.38;;;4.47;;
47009;SDS011;59230;54.164;-3.124;2023-09-19T01:46:35;42.97;;;4.50;;
47009;SDS011;59230;54.164;-3.124;2023-09-19T01:49:18;27.35;;;4.07;;
47009;SDS011;59230;54.164;-3.124;2023-09-19T01:51:51;29.27;;;4.18;;
47009;SDS011;59230;54.164;-3.124;2023-09-19T01:54:26;45.67;;;5.28;;
47009;SDS011;59230;54.164;-3.124;2023-09-19T02:00:09;38.15;;;4.55;;
47009;SDS011;59230;54.164;-3.124;2023-09-19T02:02:37;38.10;;;5.13;;
47009;SDS011;59230;54.164;-3.124;2023-09-19T02:05:04;37.03;;;4.53;;
47009;SDS011;59230;54.164;-3.124;2023-09-19T02:07:30;33.00;;;5.40;;
47009;SDS011;59230;54.164;-3.124;2023-09-19T02:09:59;39.80;;;4.60;;
47009;SDS011;59230;54.164;-3.124;2023-09-19T02:12:25;35.10;;;5.63;;
47009;SDS011;59230;54.164;-3.124;2023-09-19T02:14:53;31.60;;;4.75;;
47009;SDS011;59230;54.164;-3.124;2023-09-19T02:17:19;43.25;;;4.57;;
47009;SDS011;59230;54.164;-3.124;2023-09-19T02:19:44;40.47;;;5.22;;
47009;SDS011;59230;54.164;-3.124;2023-09-19T02:22:09;38.75;;;5.82;;
47009;SDS011;59230;54.164;-3.124;2023-09-19T02:24:38;41.95;;;5.28;;
47009;SDS011;59230;54.164;-3.124;2023-09-19T02:27:04;38.50;;;6.03;;
47009;SDS011;59230;54.164;-3.124;2023-09-19T02:29:30;50.50;;;6.80;;
47009;SDS011;59230;54.164;-3.124;2023-09-19T02:31:55;49.38;;;6.18;;
47009;SDS011;59230;54.164;-3.124;2023-09-19T02:34:21;31.23;;;4.40;;
47009;SDS011;59230;54.164;-3.124;2023-09-19T02:36:47;43.95;;;6.85;;
47009;SDS011;59230;54.164;-3.124;2023-09-19T02:46:21;29.85;;;4.78;;
47009;SDS011;59230;54.164;-3.124;2023-09-19T02:56:52;50.72;;;6.38;;
47009;SDS011;59230;54.164;-3.124;2023-09-19T02:59:28;45.55;;;6.03;;
47009;SDS011;59230;54.164;-3.124;2023-09-19T03:02:04;41.38;;;5.93;;
47009;SDS011;59230;54.164;-3.124;2023-09-19T03:04:42;34.22;;;6.35;;
47009;SDS011;59230;54.164;-3.124;2023-09-19T03:07:07;33.47;;;5.32;;
47009;SDS011;59230;54.164;-3.124;2023-09-19T03:09:39;47.05;;;5.85;;
47009;SDS011;59230;54.164;-3.124;2023-09-19T03:12:10;34.92;;;5.45;;
47009;SDS011;59230;54.164;-3.124;2023-09-19T03:14:45;37.53;;;5.20;;
47009;SDS011;59230;54.164;-3.124;2023-09-19T03:17:11;40.47;;;5.80;;
47009;SDS011;59230;54.164;-3.124;2023-09-19T03:19:47;40.88;;;5.07;;
47009;SDS011;59230;54.164;-3.124;2023-09-19T03:32:22;49.47;;;6.53;;
47009;SDS011;59230;54.164;-3.124;2023-09-19T03:34:47;47.53;;;5.75;;
47009;SDS011;59230;54.164;-3.124;2023-09-19T03:37:16;47.92;;;5.80;;
47009;SDS011;59230;54.164;-3.124;2023-09-19T03:39:42;42.10;;;5.57;;
47009;SDS011;59230;54.164;-3.124;2023-09-19T03:42:11;40.40;;;5.30;;
47009;SDS011;59230;54.164;-3.124;2023-09-19T03:44:36;41.25;;;5.30;;
47009;SDS011;59230;54.164;-3.124;2023-09-19T05:46:54;17.23;;;3.03;;
47009;SDS011;59230;54.164;-3.124;2023-09-19T05:49:24;43.67;;;3.53;;
47009;SDS011;59230;54.164;-3.124;2023-09-19T05:51:53;57.65;;;4.40;;
47009;SDS011;59230;54.164;-3.124;2023-09-19T05:54:22;43.47;;;4.40;;
47009;SDS011;59230;54.164;-3.124;2023-09-19T05:56:48;37.17;;;4.18;;
47009;SDS011;59230;54.164;-3.124;2023-09-19T05:59:20;37.67;;;3.63;;
47009;SDS011;59230;54.164;-3.124;2023-09-19T06:01:46;29.42;;;3.40;;
47009;SDS011;59230;54.164;-3.124;2023-09-19T06:04:13;32.15;;;3.55;;
47009;SDS011;59230;54.164;-3.124;2023-09-19T06:06:41;25.35;;;3.58;;
47009;SDS011;59230;54.164;-3.124;2023-09-19T06:09:09;29.77;;;3.38;;
47009;SDS011;59230;54.164;-3.124;2023-09-19T06:11:36;27.05;;;4.00;;
47009;SDS011;59230;54.164;-3.124;2023-09-19T06:14:11;25.52;;;4.70;;
47009;SDS011;59230;54.164;-3.124;2023-09-19T06:16:43;28.75;;;3.75;;
47009;SDS011;59230;54.164;-3.124;2023-09-19T06:19:12;22.25;;;4.10;;
47009;SDS011;59230;54.164;-3.124;2023-09-19T06:21:43;34.05;;;4.50;;
47009;SDS011;59230;54.164;-3.124;2023-09-19T06:24:12;59.13;;;5.50;;
47009;SDS011;59230;54.164;-3.124;2023-09-19T06:26:38;51.53;;;5.20;;
47009;SDS011;59230;54.164;-3.124;2023-09-19T06:29:04;33.03;;;4.93;;
47009;SDS011;59230;54.164;-3.124;2023-09-19T06:31:34;35.00;;;4.90;;
47009;SDS011;59230;54.164;-3.124;2023-09-19T06:34:03;21.65;;;4.80;;
47009;SDS011;59230;54.164;-3.124;2023-09-19T06:36:31;26.08;;;5.05;;
47009;SDS011;59230;54.164;-3.124;2023-09-19T06:38:57;23.40;;;4.63;;
47009;SDS011;59230;54.164;-3.124;2023-09-19T06:41:24;33.58;;;4.72;;
47009;SDS011;59230;54.164;-3.124;2023-09-19T06:43:50;24.85;;;4.57;;
47009;SDS011;59230;54.164;-3.124;2023-09-19T06:46:20;23.67;;;4.93;;
47009;SDS011;59230;54.164;-3.124;2023-09-19T06:48:48;27.33;;;5.60;;
47009;SDS011;59230;54.164;-3.124;2023-09-19T06:51:14;25.85;;;6.00;;
47009;SDS011;59230;54.164;-3.124;2023-09-19T06:53:43;24.08;;;5.50;;
47009;SDS011;59230;54.164;-3.124;2023-09-19T06:56:08;28.75;;;6.15;;
47009;SDS011;59230;54.164;-3.124;2023-09-19T06:58:36;16.40;;;4.50;;
47009;SDS011;59230;54.164;-3.124;2023-09-19T07:01:04;13.10;;;4.43;;
47009;SDS011;59230;54.164;-3.124;2023-09-19T07:03:29;10.90;;;4.18;;
47009;SDS011;59230;54.164;-3.124;2023-09-19T07:05:55;21.23;;;3.55;;
47009;SDS011;59230;54.164;-3.124;2023-09-19T07:08:23;18.13;;;3.20;;
47009;SDS011;59230;54.164;-3.124;2023-09-19T07:10:51;19.48;;;3.03;;
47009;SDS011;59230;54.164;-3.124;2023-09-19T07:13:17;16.50;;;2.50;;
47009;SDS011;59230;54.164;-3.124;2023-09-19T07:15:43;18.85;;;2.90;;
47009;SDS011;59230;54.164;-3.124;2023-09-19T07:18:17;15.82;;;2.40;;
47009;SDS011;59230;54.164;-3.124;2023-09-19T07:20:46;10.40;;;2.38;;
47009;SDS011;59230;54.164;-3.124;2023-09-19T07:23:30;79.40;;;6.53;;
47009;SDS011;59230;54.164;-3.124;2023-09-19T07:26:02;130.50;;;10.75;;
47009;SDS011;59230;54.164;-3.124;2023-09-19T07:28:31;171.85;;;13.18;;
47009;SDS011;59230;54.164;-3.124;2023-09-19T07:31:01;166.85;;;14.45;;
47009;SDS011;59230;54.164;-3.124;2023-09-19T07:33:34;172.55;;;14.30;;
47009;SDS011;59230;54.164;-3.124;2023-09-19T07:36:00;170.52;;;14.27;;
47009;SDS011;59230;54.164;-3.124;2023-09-19T07:38:27;177.63;;;13.77;;
47009;SDS011;59230;54.164;-3.124;2023-09-19T07:41:04;123.22;;;12.85;;
47009;SDS011;59230;54.164;-3.124;2023-09-19T07:43:31;154.82;;;12.27;;
47009;SDS011;59230;54.164;-3.124;2023-09-19T07:46:02;189.48;;;15.45;;
47009;SDS011;59230;54.164;-3.124;2023-09-19T07:48:33;134.32;;;12.27;;
47009;SDS011;59230;54.164;-3.124;2023-09-19T07:51:03;151.73;;;12.13;;
47009;SDS011;59230;54.164;-3.124;2023-09-19T07:53:36;136.38;;;12.98;;
47009;SDS011;59230;54.164;-3.124;2023-09-19T07:56:09;125.32;;;11.88;;
47009;SDS011;59230;54.164;-3.124;2023-09-19T07:58:40;144.68;;;12.75;;
47009;SDS011;59230;54.164;-3.124;2023-09-19T08:01:10;101.85;;;10.57;;
47009;SDS011;59230;54.164;-3.124;2023-09-19T08:03:36;120.25;;;11.45;;
47009;SDS011;59230;54.164;-3.124;2023-09-19T08:06:07;117.00;;;11.55;;
47009;SDS011;59230;54.164;-3.124;2023-09-19T08:08:34;116.22;;;12.10;;
47009;SDS011;59230;54.164;-3.124;2023-09-19T08:11:06;83.57;;;10.43;;
47009;SDS011;59230;54.164;-3.124;2023-09-19T08:13:47;106.70;;;11.40;;
47009;SDS011;59230;54.164;-3.124;2023-09-19T08:16:16;112.97;;;10.88;;
47009;SDS011;59230;54.164;-3.124;2023-09-19T08:18:48;109.40;;;11.32;;
47009;SDS011;59230;54.164;-3.124;2023-09-19T08:21:25;100.40;;;11.30;;
47009;SDS011;59230;54.164;-3.124;2023-09-19T08:23:52;137.95;;;12.52;;
47009;SDS011;59230;54.164;-3.124;2023-09-19T08:26:20;111.40;;;10.95;;
47009;SDS011;59230;54.164;-3.124;2023-09-19T08:28:50;93.90;;;10.02;;
47009;SDS011;59230;54.164;-3.124;2023-09-19T08:31:18;111.80;;;10.73;;
47009;SDS011;59230;54.164;-3.124;2023-09-19T08:33:43;117.78;;;11.18;;
47009;SDS011;59230;54.164;-3.124;2023-09-19T08:36:15;104.03;;;8.88;;
47009;SDS011;59230;54.164;-3.124;2023-09-19T08:38:41;103.20;;;10.68;;
47009;SDS011;59230;54.164;-3.124;2023-09-19T08:41:09;95.95;;;11.65;;
47009;SDS011;59230;54.164;-3.124;2023-09-19T08:43:35;109.65;;;10.18;;
47009;SDS011;59230;54.164;-3.124;2023-09-19T08:46:06;103.20;;;10.57;;
47009;SDS011;59230;54.164;-3.124;2023-09-19T08:48:46;88.88;;;9.90;;
47009;SDS011;59230;54.164;-3.124;2023-09-19T08:51:30;81.18;;;7.72;;
47009;SDS011;59230;54.164;-3.124;2023-09-19T08:54:07;87.80;;;8.40;;
47009;SDS011;59230;54.164;-3.124;2023-09-19T08:56:34;73.20;;;8.40;;
47009;SDS011;59230;54.164;-3.124;2023-09-19T08:59:06;85.72;;;8.43;;
47009;SDS011;59230;54.164;-3.124;2023-09-19T09:01:52;78.85;;;8.55;;
47009;SDS011;59230;54.164;-3.124;2023-09-19T09:04:19;88.38;;;8.45;;
47009;SDS011;59230;54.164;-3.124;2023-09-19T09:06:45;93.03;;;8.60;;
47009;SDS011;59230;54.164;-3.124;2023-09-19T09:09:20;80.03;;;8.60;;
47009;SDS011;59230;54.164;-3.124;2023-09-19T09:11:48;75.63;;;7.47;;
47009;SDS011;59230;54.164;-3.124;2023-09-19T09:14:19;88.28;;;8.70;;
47009;SDS011;59230;54.164;-3.124;2023-09-19T09:16:49;93.43;;;8.40;;
47009;SDS011;59230;54.164;-3.124;2023-09-19T09:19:16;77.75;;;9.13;;
47009;SDS011;59230;54.164;-3.124;2023-09-19T09:21:50;82.18;;;7.93;;
47009;SDS011;59230;54.164;-3.124;2023-09-19T09:24:26;89.15;;;8.13;;
47009;SDS011;59230;54.164;-3.124;2023-09-19T09:26:55;83.45;;;8.55;;
47009;SDS011;59230;54.164;-3.124;2023-09-19T09:29:40;92.25;;;8.40;;
47009;SDS011;59230;54.164;-3.124;2023-09-19T09:32:28;59.35;;;6.28;;
47009;SDS011;59230;54.164;-3.124;2023-09-19T09:35:00;68.93;;;6.68;;
47009;SDS011;59230;54.164;-3.124;2023-09-19T09:37:31;64.28;;;6.45;;
47009;SDS011;59230;54.164;-3.124;2023-09-19T09:40:02;59.08;;;6.78;;
47009;SDS011;59230;54.164;-3.124;2023-09-19T09:42:46;67.63;;;7.78;;
47009;SDS011;59230;54.164;-3.124;2023-09-19T09:45:21;78.28;;;7.47;;
47009;SDS011;59230;54.164;-3.124;2023-09-19T09:48:09;78.13;;;7.13;;
47009;SDS011;59230;54.164;-3.124;2023-09-19T09:50:46;64.82;;;7.28;;
47009;SDS011;59230;54.164;-3.124;2023-09-19T09:53:23;56.22;;;6.10;;
47009;SDS011;59230;54.164;-3.124;2023-09-19T09:56:05;49.10;;;6.35;;
47009;SDS011;59230;54.164;-3.124;2023-09-19T09:58:37;59.20;;;6.43;;
47009;SDS011;59230;54.164;-3.124;2023-09-19T10:01:05;57.67;;;6.57;;
47009;SDS011;59230;54.164;-3.124;2023-09-19T10:03:36;84.45;;;7.68;;
47009;SDS011;59230;54.164;-3.124;2023-09-19T10:06:06;70.53;;;7.85;;
47009;SDS011;59230;54.164;-3.124;2023-09-19T10:09:01;68.97;;;6.95;;
47009;SDS011;59230;54.164;-3.124;2023-09-19T10:11:44;71.90;;;9.00;;
47009;SDS011;59230;54.164;-3.124;2023-09-19T10:14:17;67.20;;;8.25;;
47009;SDS011;59230;54.164;-3.124;2023-09-19T10:16:51;73.43;;;7.88;;
47009;SDS011;59230;54.164;-3.124;2023-09-19T10:19:30;74.75;;;7.22;;
47009;SDS011;59230;54.164;-3.124;2023-09-19T10:22:02;64.80;;;7.45;;
47009;SDS011;59230;54.164;-3.124;2023-09-19T10:24:33;69.53;;;7.00;;
47009;SDS011;59230;54.164;-3.124;2023-09-19T10:26:59;69.75;;;7.82;;
47009;SDS011;59230;54.164;-3.124;2023-09-19T10:29:26;76.38;;;8.10;;
47009;SDS011;59230;54.164;-3.124;2023-09-19T10:31:56;68.95;;;8.05;;
47009;SDS011;59230;54.164;-3.124;2023-09-19T10:34:26;66.95;;;6.70;;
47009;SDS011;59230;54.164;-3.124;2023-09-19T10:36:52;61.83;;;6.68;;
47009;SDS011;59230;54.164;-3.124;2023-09-19T10:39:18;61.35;;;6.10;;
47009;SDS011;59230;54.164;-3.124;2023-09-19T10:41:45;56.10;;;6.97;;
47009;SDS011;59230;54.164;-3.124;2023-09-19T10:44:26;44.58;;;4.43;;
47009;SDS011;59230;54.164;-3.124;2023-09-19T10:46:57;34.00;;;4.88;;
47009;SDS011;59230;54.164;-3.124;2023-09-19T10:49:25;26.10;;;2.80;;
47009;SDS011;59230;54.164;-3.124;2023-09-19T10:51:52;24.42;;;3.35;;
47009;SDS011;59230;54.164;-3.124;2023-09-19T10:54:26;24.05;;;2.50;;
47009;SDS011;59230;54.164;-3.124;2023-09-19T10:56:54;21.63;;;2.72;;
47009;SDS011;59230;54.164;-3.124;2023-09-19T10:59:25;24.90;;;3.08;;
47009;SDS011;59230;54.164;-3.124;2023-09-19T11:02:17;26.80;;;3.30;;
47009;SDS011;59230;54.164;-3.124;2023-09-19T11:04:43;26.20;;;3.05;;
47009;SDS011;59230;54.164;-3.124;2023-09-19T11:07:12;24.25;;;2.88;;
47009;SDS011;59230;54.164;-3.124;2023-09-19T11:09:51;17.02;;;3.10;;
47009;SDS011;59230;54.164;-3.124;2023-09-19T11:15:03;18.83;;;2.20;;
47009;SDS011;59230;54.164;-3.124;2023-09-19T11:17:44;39.67;;;3.55;;
47009;SDS011;59230;54.164;-3.124;2023-09-19T11:30:53;30.10;;;2.83;;
47009;SDS011;59230;54.164;-3.124;2023-09-19T11:33:21;25.55;;;2.92;;
47009;SDS011;59230;54.164;-3.124;2023-09-19T11:46:33;18.55;;;2.97;;
47009;SDS011;59230;54.164;-3.124;2023-09-19T11:49:06;21.20;;;2.30;;
47009;SDS011;59230;54.164;-3.124;2023-09-19T11:51:40;22.13;;;2.42;;
47009;SDS011;59230;54.164;-3.124;2023-09-19T11:54:12;24.02;;;2.42;;
47009;SDS011;59230;54.164;-3.124;2023-09-19T11:56:51;26.77;;;2.00;;
47009;SDS011;59230;54.164;-3.124;2023-09-19T11:59:19;13.20;;;2.05;;
47009;SDS011;59230;54.164;-3.124;2023-09-19T12:01:55;15.02;;;2.13;;
47009;SDS011;59230;54.164;-3.124;2023-09-19T12:04:38;18.38;;;2.40;;
47009;SDS011;59230;54.164;-3.124;2023-09-19T12:07:13;21.25;;;2.47;;
47009;SDS011;59230;54.164;-3.124;2023-09-19T12:10:23;16.83;;;1.88;;
47009;SDS011;59230;54.164;-3.124;2023-09-19T12:12:32;14.73;;;1.77;;
47009;SDS011;59230;54.164;-3.124;2023-09-19T12:15:03;17.33;;;1.88;;
47009;SDS011;59230;54.164;-3.124;2023-09-19T12:20:06;10.25;;;1.70;;
47009;SDS011;59230;54.164;-3.124;2023-09-19T12:22:41;5.43;;;1.00;;
47009;SDS011;59230;54.164;-3.124;2023-09-19T12:25:16;8.10;;;1.70;;
47009;SDS011;59230;54.164;-3.124;2023-09-19T12:27:48;19.02;;;2.05;;
47009;SDS011;59230;54.164;-3.124;2023-09-19T12:30:18;12.57;;;1.45;;
47009;SDS011;59230;54.164;-3.124;2023-09-19T12:32:47;13.38;;;1.50;;
47009;SDS011;59230;54.164;-3.124;2023-09-19T12:35:29;12.45;;;1.33;;
47009;SDS011;59230;54.164;-3.124;2023-09-19T12:38:01;11.27;;;1.40;;
47009;SDS011;59230;54.164;-3.124;2023-09-19T12:40:33;8.43;;;1.27;;
47009;SDS011;59230;54.164;-3.124;2023-09-19T12:43:04;13.10;;;1.90;;
47009;SDS011;59230;54.164;-3.124;2023-09-19T12:45:30;8.82;;;1.33;;
47009;SDS011;59230;54.164;-3.124;2023-09-19T12:51:08;10.02;;;1.15;;
47009;SDS011;59230;54.164;-3.124;2023-09-19T12:53:56;4.60;;;0.97;;
47009;SDS011;59230;54.164;-3.124;2023-09-19T12:56:24;7.60;;;1.08;;
47009;SDS011;59230;54.164;-3.124;2023-09-19T12:58:56;4.60;;;1.00;;
47009;SDS011;59230;54.164;-3.124;2023-09-19T13:01:27;8.52;;;1.00;;
47009;SDS011;59230;54.164;-3.124;2023-09-19T13:06:56;4.75;;;0.93;;
47009;SDS011;59230;54.164;-3.124;2023-09-19T13:09:30;3.95;;;0.80;;
47009;SDS011;59230;54.164;-3.124;2023-09-19T13:12:05;4.07;;;0.82;;
47009;SDS011;59230;54.164;-3.124;2023-09-19T13:15:11;4.55;;;0.88;;
47009;SDS011;59230;54.164;-3.124;2023-09-19T13:17:46;7.57;;;0.80;;
47009;SDS011;59230;54.164;-3.124;2023-09-19T13:20:24;7.88;;;0.98;;
47009;SDS011;59230;54.164;-3.124;2023-09-19T13:22:57;1.42;;;0.70;;
47009;SDS011;59230;54.164;-3.124;2023-09-19T13:25:26;2.22;;;0.80;;
47009;SDS011;59230;54.164;-3.124;2023-09-19T13:27:57;5.68;;;1.27;;
47009;SDS011;59230;54.164;-3.124;2023-09-19T13:30:27;2.80;;;0.60;;
47009;SDS011;59230;54.164;-3.124;2023-09-19T13:33:07;2.40;;;0.80;;
47009;SDS011;59230;54.164;-3.124;2023-09-19T13:35:35;7.53;;;0.90;;
47009;SDS011;59230;54.164;-3.124;2023-09-19T13:38:05;6.95;;;1.00;;
47009;SDS011;59230;54.164;-3.124;2023-09-19T13:40:32;4.25;;;0.90;;
47009;SDS011;59230;54.164;-3.124;2023-09-19T13:43:01;6.72;;;1.17;;
47009;SDS011;59230;54.164;-3.124;2023-09-19T13:45:26;6.40;;;1.20;;
47009;SDS011;59230;54.164;-3.124;2023-09-19T13:47:59;12.00;;;1.90;;
47009;SDS011;59230;54.164;-3.124;2023-09-19T13:50:26;16.55;;;1.90;;
47009;SDS011;59230;54.164;-3.124;2023-09-19T13:52:56;19.90;;;2.38;;
47009;SDS011;59230;54.164;-3.124;2023-09-19T13:55:23;23.10;;;2.33;;
47009;SDS011;59230;54.164;-3.124;2023-09-19T13:57:50;37.08;;;4.05;;
47009;SDS011;59230;54.164;-3.124;2023-09-19T14:00:19;36.75;;;3.90;;
47009;SDS011;59230;54.164;-3.124;2023-09-19T14:02:44;55.97;;;5.70;;
47009;SDS011;59230;54.164;-3.124;2023-09-19T14:05:11;73.30;;;6.78;;
47009;SDS011;59230;54.164;-3.124;2023-09-19T14:07:44;89.93;;;8.43;;
47009;SDS011;59230;54.164;-3.124;2023-09-19T14:10:17;97.00;;;9.10;;
47009;SDS011;59230;54.164;-3.124;2023-09-19T14:12:50;86.40;;;9.43;;
47009;SDS011;59230;54.164;-3.124;2023-09-19T14:15:17;98.97;;;9.13;;
47009;SDS011;59230;54.164;-3.124;2023-09-19T14:17:44;96.32;;;9.52;;
47009;SDS011;59230;54.164;-3.124;2023-09-19T14:20:11;120.95;;;9.32;;
47009;SDS011;59230;54.164;-3.124;2023-09-19T14:22:40;86.95;;;8.18;;
47009;SDS011;59230;54.164;-3.124;2023-09-19T14:25:06;93.10;;;11.30;;
47009;SDS011;59230;54.164;-3.124;2023-09-19T14:27:32;102.28;;;9.43;;
47009;SDS011;59230;54.164;-3.124;2023-09-19T14:29:59;93.30;;;10.80;;
47009;SDS011;59230;54.164;-3.124;2023-09-19T14:32:25;110.55;;;11.25;;
47009;SDS011;59230;54.164;-3.124;2023-09-19T14:34:52;125.40;;;12.60;;
47009;SDS011;59230;54.164;-3.124;2023-09-19T14:37:17;110.15;;;11.02;;
47009;SDS011;59230;54.164;-3.124;2023-09-19T14:39:44;106.63;;;10.52;;
47009;SDS011;59230;54.164;-3.124;2023-09-19T14:42:12;106.35;;;11.02;;
47009;SDS011;59230;54.164;-3.124;2023-09-19T14:44:44;123.63;;;12.00;;
47009;SDS011;59230;54.164;-3.124;2023-09-19T14:47:12;108.47;;;11.85;;
47009;SDS011;59230;54.164;-3.124;2023-09-19T14:49:40;141.13;;;12.35;;
47009;SDS011;59230;54.164;-3.124;2023-09-19T14:52:09;133.70;;;12.95;;
47009;SDS011;59230;54.164;-3.124;2023-09-19T14:54:38;132.00;;;13.00;;
47009;SDS011;59230;54.164;-3.124;2023-09-19T14:57:06;123.63;;;13.52;;
47009;SDS011;59230;54.164;-3.124;2023-09-19T14:59:36;121.78;;;13.13;;
47009;SDS011;59230;54.164;-3.124;2023-09-19T15:02:05;116.15;;;12.38;;
47009;SDS011;59230;54.164;-3.124;2023-09-19T15:04:31;141.25;;;14.00;;
47009;SDS011;59230;54.164;-3.124;2023-09-19T15:06:59;136.45;;;13.15;;
47009;SDS011;59230;54.164;-3.124;2023-09-19T15:09:26;137.07;;;15.20;;
47009;SDS011;59230;54.164;-3.124;2023-09-19T15:11:54;119.13;;;13.15;;
47009;SDS011;59230;54.164;-3.124;2023-09-19T15:14:21;147.45;;;14.38;;
47009;SDS011;59230;54.164;-3.124;2023-09-19T15:16:54;119.55;;;14.20;;
47009;SDS011;59230;54.164;-3.124;2023-09-19T15:19:21;135.48;;;13.45;;
47009;SDS011;59230;54.164;-3.124;2023-09-19T15:21:51;125.30;;;13.98;;
47009;SDS011;59230;54.164;-3.124;2023-09-19T15:24:20;146.75;;;13.30;;
47009;SDS011;59230;54.164;-3.124;2023-09-19T15:26:46;122.95;;;13.60;;
47009;SDS011;59230;54.164;-3.124;2023-09-19T15:29:14;126.95;;;12.48;;
47009;SDS011;59230;54.164;-3.124;2023-09-19T15:31:42;124.38;;;13.50;;
47009;SDS011;59230;54.164;-3.124;2023-09-19T15:34:08;132.80;;;14.45;;
47009;SDS011;59230;54.164;-3.124;2023-09-19T15:36:36;130.60;;;12.93;;
47009;SDS011;59230;54.164;-3.124;2023-09-19T15:39:05;133.27;;;12.85;;
47009;SDS011;59230;54.164;-3.124;2023-09-19T15:41:45;135.45;;;14.18;;
47009;SDS011;59230;54.164;-3.124;2023-09-19T15:44:17;139.65;;;12.95;;
47009;SDS011;59230;54.164;-3.124;2023-09-19T15:46:47;126.75;;;13.10;;
47009;SDS011;59230;54.164;-3.124;2023-09-19T15:49:14;140.77;;;13.40;;
47009;SDS011;59230;54.164;-3.124;2023-09-19T15:51:44;115.18;;;12.32;;
47009;SDS011;59230;54.164;-3.124;2023-09-19T15:54:11;147.40;;;13.38;;
47009;SDS011;59230;54.164;-3.124;2023-09-19T15:56:41;126.95;;;13.20;;
47009;SDS011;59230;54.164;-3.124;2023-09-19T15:59:09;119.38;;;13.13;;
47009;SDS011;59230;54.164;-3.124;2023-09-19T16:01:40;132.02;;;13.05;;
47009;SDS011;59230;54.164;-3.124;2023-09-19T16:04:10;126.78;;;14.43;;
47009;SDS011;59230;54.164;-3.124;2023-09-19T16:06:37;112.30;;;12.80;;
47009;SDS011;59230;54.164;-3.124;2023-09-19T16:09:03;142.68;;;13.45;;
47009;SDS011;59230;54.164;-3.124;2023-09-19T16:11:32;137.40;;;13.80;;
47009;SDS011;59230;54.164;-3.124;2023-09-19T16:14:02;125.30;;;13.40;;
47009;SDS011;59230;54.164;-3.124;2023-09-19T16:16:32;126.18;;;13.98;;
47009;SDS011;59230;54.164;-3.124;2023-09-19T16:19:01;140.82;;;13.80;;
47009;SDS011;59230;54.164;-3.124;2023-09-19T16:21:28;122.40;;;13.02;;
47009;SDS011;59230;54.164;-3.124;2023-09-19T16:23:56;123.68;;;13.07;;
47009;SDS011;59230;54.164;-3.124;2023-09-19T16:26:25;137.20;;;14.30;;
47009;SDS011;59230;54.164;-3.124;2023-09-19T16:28:57;139.32;;;13.02;;
47009;SDS011;59230;54.164;-3.124;2023-09-19T16:31:26;138.18;;;13.82;;
47009;SDS011;59230;54.164;-3.124;2023-09-19T16:33:54;140.23;;;15.10;;
47009;SDS011;59230;54.164;-3.124;2023-09-19T16:36:21;144.07;;;15.15;;
47009;SDS011;59230;54.164;-3.124;2023-09-19T16:38:50;151.43;;;14.75;;
47009;SDS011;59230;54.164;-3.124;2023-09-19T16:41:18;141.50;;;15.07;;
47009;SDS011;59230;54.164;-3.124;2023-09-19T16:43:47;144.50;;;14.77;;
47009;SDS011;59230;54.164;-3.124;2023-09-19T16:46:13;156.80;;;14.73;;
47009;SDS011;59230;54.164;-3.124;2023-09-19T16:48:44;153.75;;;16.65;;
47009;SDS011;59230;54.164;-3.124;2023-09-19T16:51:14;155.45;;;16.10;;
47009;SDS011;59230;54.164;-3.124;2023-09-19T16:53:42;131.32;;;16.40;;
47009;SDS011;59230;54.164;-3.124;2023-09-19T16:56:18;158.05;;;15.63;;
47009;SDS011;59230;54.164;-3.124;2023-09-19T16:58:46;136.90;;;15.50;;
47009;SDS011;59230;54.164;-3.124;2023-09-19T17:01:21;126.72;;;15.00;;
47009;SDS011;59230;54.164;-3.124;2023-09-19T17:03:50;129.05;;;15.27;;
47009;SDS011;59230;54.164;-3.124;2023-09-19T17:06:17;153.52;;;14.82;;
47009;SDS011;59230;54.164;-3.124;2023-09-19T17:08:49;129.68;;;14.75;;
47009;SDS011;59230;54.164;-3.124;2023-09-19T17:11:24;149.90;;;14.85;;
47009;SDS011;59230;54.164;-3.124;2023-09-19T17:13:51;164.50;;;14.63;;
47009;SDS011;59230;54.164;-3.124;2023-09-19T17:16:24;151.05;;;15.32;;
47009;SDS011;59230;54.164;-3.124;2023-09-19T17:18:54;162.32;;;16.58;;
47009;SDS011;59230;54.164;-3.124;2023-09-19T17:21:21;129.45;;;14.32;;
47009;SDS011;59230;54.164;-3.124;2023-09-19T17:23:52;135.13;;;15.52;;
47009;SDS011;59230;54.164;-3.124;2023-09-19T17:26:19;126.70;;;16.05;;
47009;SDS011;59230;54.164;-3.124;2023-09-19T17:28:46;132.07;;;14.63;;
47009;SDS011;59230;54.164;-3.124;2023-09-19T17:31:13;150.32;;;15.25;;
47009;SDS011;59230;54.164;-3.124;2023-09-19T17:33:41;155.13;;;14.45;;
47009;SDS011;59230;54.164;-3.124;2023-09-19T17:36:12;135.68;;;15.20;;
47009;SDS011;59230;54.164;-3.124;2023-09-19T17:38:43;133.48;;;13.57;;
47009;SDS011;59230;54.164;-3.124;2023-09-19T17:41:11;125.22;;;13.43;;
47009;SDS011;59230;54.164;-3.124;2023-09-19T17:43:41;127.15;;;12.90;;
47009;SDS011;59230;54.164;-3.124;2023-09-19T17:46:12;121.75;;;15.00;;
47009;SDS011;59230;54.164;-3.124;2023-09-19T17:48:43;136.73;;;13.90;;
47009;SDS011;59230;54.164;-3.124;2023-09-19T17:51:19;118.50;;;13.40;;
47009;SDS011;59230;54.164;-3.124;2023-09-19T17:53:48;132.50;;;12.85;;